Time;durP1;ratioP1;P1;durP2;ratioP2;P2;SDS_P1;SDS_P2;PMS_P1;PMS_P2;Temp;Humidity;BMP_temperature;BMP_pressure;BME280_temperature;BME280_humidity;BME280_pressure;Samples;Min_cycle;Max_cycle;Signal;HPM_P1;HPM_P2
2023/03/26 00:01:57;;;;;;;0.00;0.00;;;8.80;99.90;;;;;;5006965;28;20255;-77
2023/03/26 00:04:24;;;;;;;0.00;0.00;;;8.80;99.90;;;;;;5005493;28;20009;-78
2023/03/26 00:06:52;;;;;;;0.00;0.00;;;8.90;99.90;;;;;;5032807;28;20105;-78
2023/03/26 00:09:20;;;;;;;0.00;0.00;;;8.90;99.90;;;;;;5016270;28;20017;-77
2023/03/26 00:11:47;;;;;;;0.00;0.00;;;9.00;99.90;;;;;;5004769;28;20022;-77
2023/03/26 00:14:18;;;;;;;;;;;8.90;99.90;;;;;;5007786;28;20037;-77
2023/03/26 00:16:48;;;;;;;0.00;0.00;;;8.90;99.90;;;;;;5021896;28;19919;-78
2023/03/26 00:19:17;;;;;;;0.00;0.00;;;8.90;99.90;;;;;;5011278;28;20479;-77
2023/03/26 00:21:47;;;;;;;0.00;0.00;;;8.90;99.90;;;;;;5002590;28;20037;-78
2023/03/26 00:24:28;;;;;;;0.00;0.00;;;8.90;99.90;;;;;;5004079;28;20046;-77
2023/03/26 00:27:04;;;;;;;0.00;0.00;;;8.90;99.90;;;;;;5006948;28;20064;-78
2023/03/26 00:29:32;;;;;;;0.00;0.00;;;9.00;99.90;;;;;;5006496;28;20491;-78
2023/03/26 00:31:58;;;;;;;0.00;0.00;;;9.00;99.90;;;;;;5004393;28;20037;-78
2023/03/26 00:34:27;;;;;;;;;;;9.00;99.90;;;;;;5018819;28;20030;-77
2023/03/26 00:36:54;;;;;;;0.00;0.00;;;9.00;99.90;;;;;;5007682;28;19913;-77
2023/03/26 00:39:22;;;;;;;;;;;9.00;99.90;;;;;;5022018;28;20080;-77
2023/03/26 00:41:53;;;;;;;0.00;0.00;;;9.00;99.90;;;;;;5024560;28;19992;-77
2023/03/26 00:44:22;;;;;;;0.00;0.00;;;8.90;99.90;;;;;;5004916;28;20468;-77
2023/03/26 00:46:49;;;;;;;0.00;0.00;;;9.00;99.90;;;;;;5009143;28;20025;-78
2023/03/26 00:49:29;;;;;;;0.00;0.00;;;9.00;99.90;;;;;;4996440;28;20038;-78
2023/03/26 00:52:03;;;;;;;0.00;0.00;;;9.00;99.90;;;;;;5004427;28;20037;-78
2023/03/26 00:54:30;;;;;;;0.00;0.00;;;9.00;99.90;;;;;;5004738;28;20029;-79
2023/03/26 00:57:01;;;;;;;0.00;0.00;;;9.00;99.90;;;;;;5009689;28;20029;-78
2023/03/26 00:59:29;;;;;;;0.00;0.00;;;9.10;99.90;;;;;;5005842;28;20112;-78
2023/03/26 01:01:57;;;;;;;0.00;0.00;;;9.10;99.90;;;;;;5005902;28;20029;-77
2023/03/26 01:04:29;;;;;;;0.00;0.00;;;9.20;99.90;;;;;;5005703;28;20892;-77
2023/03/26 01:07:08;;;;;;;0.00;0.00;;;9.20;99.90;;;;;;5025628;28;20030;-78
2023/03/26 01:09:49;;;;;;;0.00;0.00;;;9.10;99.90;;;;;;5008933;28;20018;-78
2023/03/26 01:12:26;;;;;;;0.00;0.00;;;9.10;99.90;;;;;;5007660;28;20049;-77
2023/03/26 01:14:59;;;;;;;0.00;0.00;;;9.10;99.90;;;;;;5005762;28;20014;-78
2023/03/26 01:17:32;;;;;;;0.00;0.00;;;9.20;99.90;;;;;;5007172;28;21246;-78
2023/03/26 01:20:25;;;;;;;0.00;0.00;;;9.10;99.90;;;;;;5010117;28;20030;-78
2023/03/26 01:23:04;;;;;;;0.00;0.00;;;9.10;99.90;;;;;;5003451;28;20018;-78
2023/03/26 01:25:39;;;;;;;0.00;0.00;;;9.10;99.90;;;;;;5018583;28;20022;-78
2023/03/26 01:28:07;;;;;;;0.00;0.00;;;9.10;99.90;;;;;;5013177;28;20026;-78
2023/03/26 01:30:41;;;;;;;0.00;0.00;;;9.10;99.90;;;;;;5010388;28;20025;-78
2023/03/26 01:34:01;;;;;;;0.00;0.00;;;9.10;99.90;;;;;;5003329;28;20025;-78
2023/03/26 01:36:40;;;;;;;0.00;0.00;;;9.10;99.90;;;;;;5000818;28;20466;-78
2023/03/26 01:39:39;;;;;;;0.00;0.00;;;9.10;99.90;;;;;;5000665;28;20024;-78
2023/03/26 01:42:17;;;;;;;0.00;0.00;;;9.20;99.90;;;;;;5000929;28;20025;-77
2023/03/26 01:44:46;;;;;;;0.00;0.00;;;9.20;99.90;;;;;;5003623;28;20018;-77
2023/03/26 01:47:17;;;;;;;0.00;0.00;;;9.20;99.90;;;;;;5004326;28;20017;-78
2023/03/26 01:49:44;;;;;;;0.00;0.00;;;9.30;99.90;;;;;;5004609;28;20033;-77
2023/03/26 01:52:16;;;;;;;0.00;0.00;;;9.30;99.90;;;;;;5002976;28;20029;-78
2023/03/26 01:54:45;;;;;;;0.00;0.00;;;9.40;99.90;;;;;;5002179;28;20383;-78
2023/03/26 01:57:22;;;;;;;0.00;0.00;;;9.40;99.90;;;;;;4992685;28;20550;-78
2023/03/26 02:00:10;;;;;;;0.00;0.00;;;9.50;99.90;;;;;;5027198;28;20028;-76
2023/03/26 02:02:55;;;;;;;0.00;0.00;;;9.50;99.90;;;;;;5006886;28;20018;-75
2023/03/26 02:05:57;;;;;;;0.00;0.00;;;9.60;99.90;;;;;;5002826;28;20060;-76
2023/03/26 02:08:37;;;;;;;0.00;0.00;;;9.70;99.90;;;;;;5017234;28;20029;-75
2023/03/26 02:11:13;;;;;;;0.00;0.00;;;9.80;99.90;;;;;;5004670;28;20028;-75
2023/03/26 02:13:45;;;;;;;0.00;0.00;;;9.70;99.90;;;;;;4997907;28;20502;-75
2023/03/26 02:16:18;;;;;;;0.00;0.00;;;9.70;99.90;;;;;;5017700;28;20037;-75
2023/03/26 02:18:50;;;;;;;0.00;0.00;;;9.60;99.90;;;;;;5012174;28;20037;-75
2023/03/26 02:21:24;;;;;;;0.00;0.00;;;9.50;99.90;;;;;;5018746;28;20025;-74
2023/03/26 02:24:01;;;;;;;0.00;0.00;;;9.40;99.90;;;;;;5001134;28;20029;-75
2023/03/26 02:26:32;;;;;;;0.00;0.00;;;9.50;99.90;;;;;;5007912;28;20018;-75
2023/03/26 02:29:00;;;;;;;0.00;0.00;;;9.50;99.90;;;;;;5003240;28;20037;-75
2023/03/26 02:31:26;;;;;;;0.00;0.00;;;9.40;99.90;;;;;;5002837;28;20018;-75
2023/03/26 02:33:54;;;;;;;0.00;0.00;;;9.40;99.90;;;;;;5010210;28;20101;-75
2023/03/26 02:36:28;;;;;;;0.00;0.00;;;9.30;99.90;;;;;;5007162;28;20057;-75
2023/03/26 02:39:09;;;;;;;0.00;0.00;;;9.30;99.90;;;;;;5004630;28;20030;-75
2023/03/26 02:41:36;;;;;;;0.00;0.00;;;9.20;99.90;;;;;;4996792;28;20021;-75
2023/03/26 02:44:04;;;;;;;0.00;0.00;;;9.20;99.90;;;;;;5005537;28;20030;-75
2023/03/26 02:46:32;;;;;;;0.00;0.00;;;9.10;99.90;;;;;;5001936;28;20535;-76
2023/03/26 02:49:01;;;;;;;0.00;0.00;;;9.20;99.90;;;;;;5006393;28;20037;-75
2023/03/26 02:51:27;;;;;;;0.00;0.00;;;9.10;99.90;;;;;;4999970;28;20014;-75
2023/03/26 02:53:58;;;;;;;0.00;0.00;;;9.00;99.90;;;;;;5001894;28;20380;-75
2023/03/26 02:56:31;;;;;;;0.00;0.00;;;9.00;99.90;;;;;;5002207;28;20041;-76
2023/03/26 02:58:56;;;;;;;0.00;0.00;;;8.90;99.90;;;;;;5002862;28;20088;-75
2023/03/26 03:01:23;;;;;;;0.00;0.00;;;8.90;99.90;;;;;;5018999;28;20030;-75
2023/03/26 03:03:51;;;;;;;;;;;8.90;99.90;;;;;;5006193;28;20026;-76
2023/03/26 03:06:18;;;;;;;0.00;0.00;;;8.90;99.90;;;;;;5009900;28;19908;-75
2023/03/26 03:08:45;;;;;;;0.00;0.00;;;8.90;99.90;;;;;;5001019;28;20104;-75
2023/03/26 03:11:15;;;;;;;0.00;0.00;;;8.90;99.90;;;;;;5003466;28;20046;-75
2023/03/26 03:13:51;;;;;;;0.00;0.00;;;8.90;99.90;;;;;;4997808;28;20474;-75
2023/03/26 03:16:22;;;;;;;0.00;0.00;;;8.90;99.90;;;;;;5021112;28;20026;-76
2023/03/26 03:18:55;;;;;;;0.00;0.00;;;9.00;99.90;;;;;;5008888;28;20468;-76
2023/03/26 03:21:25;;;;;;;0.00;0.00;;;9.00;99.90;;;;;;5009812;28;20049;-75
2023/03/26 03:23:59;;;;;;;0.00;0.00;;;9.00;99.90;;;;;;5022726;28;20098;-75
2023/03/26 03:26:28;;;;;;;0.00;0.00;;;8.90;99.90;;;;;;5008522;28;20533;-75
2023/03/26 03:28:56;;;;;;;0.00;0.00;;;8.90;99.90;;;;;;5025427;28;20049;-75
2023/03/26 03:31:25;;;;;;;0.00;0.00;;;9.00;99.90;;;;;;5008004;28;20021;-75
2023/03/26 03:33:53;;;;;;;0.00;0.00;;;8.90;99.90;;;;;;5007380;28;20049;-75
2023/03/26 03:36:21;;;;;;;0.00;0.00;;;8.80;99.90;;;;;;5003474;28;20082;-75
2023/03/26 03:38:52;;;;;;;0.00;0.00;;;8.80;99.90;;;;;;5008553;28;20040;-75
2023/03/26 03:41:19;;;;;;;0.00;0.00;;;8.80;99.90;;;;;;5006715;28;20109;-75
2023/03/26 03:43:47;;;;;;;0.00;0.00;;;8.80;99.90;;;;;;5021243;28;20026;-75
2023/03/26 03:46:13;;;;;;;0.00;0.00;;;8.80;99.90;;;;;;5003363;28;20102;-75
2023/03/26 03:48:46;;;;;;;0.00;0.00;;;8.80;99.90;;;;;;5025689;28;20049;-75
2023/03/26 03:51:12;;;;;;;0.00;0.00;;;8.90;99.90;;;;;;5004033;28;20017;-75
2023/03/26 03:53:44;;;;;;;0.00;0.00;;;9.00;99.90;;;;;;5010566;28;20031;-74
2023/03/26 03:56:13;;;;;;;0.00;0.00;;;9.00;99.90;;;;;;5005383;28;20105;-76
2023/03/26 03:58:41;;;;;;;0.00;0.00;;;9.10;99.90;;;;;;5016709;28;20421;-75
2023/03/26 04:01:09;;;;;;;0.00;0.00;;;9.10;99.90;;;;;;5022426;28;20036;-75
2023/03/26 04:03:38;;;;;;;0.00;0.00;;;9.00;99.90;;;;;;5006779;28;20108;-75
2023/03/26 04:06:09;;;;;;;0.00;0.00;;;9.00;99.90;;;;;;5006299;28;20032;-75
2023/03/26 04:08:39;;;;;;;0.00;0.00;;;9.00;99.90;;;;;;5012108;28;20453;-75
2023/03/26 04:11:21;;;;;;;0.00;0.00;;;9.00;99.90;;;;;;5010387;28;20054;-75
2023/03/26 04:13:48;;;;;;;0.00;0.00;;;9.00;99.90;;;;;;5021863;28;20104;-76
2023/03/26 04:16:14;;;;;;;0.00;0.00;;;9.10;99.90;;;;;;5023497;28;20065;-75
2023/03/26 04:18:39;;;;;;;0.00;0.00;;;9.10;99.90;;;;;;5020065;28;20052;-76
2023/03/26 04:21:06;;;;;;;0.00;0.00;;;9.10;99.90;;;;;;5005761;28;20022;-75
2023/03/26 04:23:33;;;;;;;0.00;0.00;;;9.10;99.90;;;;;;5004374;28;20269;-75
2023/03/26 04:26:06;;;;;;;0.00;0.00;;;9.10;99.90;;;;;;5003356;28;20439;-74
2023/03/26 04:28:41;;;;;;;0.00;0.00;;;9.00;99.90;;;;;;5000319;28;20026;-75
2023/03/26 04:31:14;;;;;;;0.00;0.00;;;9.00;99.90;;;;;;5013553;28;20394;-76
2023/03/26 04:33:47;;;;;;;0.00;0.00;;;9.00;99.90;;;;;;5022503;28;20022;-75
2023/03/26 04:36:16;;;;;;;0.00;0.00;;;9.10;99.90;;;;;;5016740;28;20603;-75
2023/03/26 04:38:50;;;;;;;0.00;0.00;;;9.10;99.90;;;;;;5005937;28;20104;-75
2023/03/26 04:41:21;;;;;;;0.00;0.00;;;9.00;99.90;;;;;;5017988;28;20017;-75
2023/03/26 04:43:49;;;;;;;0.00;0.00;;;9.00;99.90;;;;;;4999302;28;20073;-75
2023/03/26 04:46:20;;;;;;;0.00;0.00;;;9.00;99.90;;;;;;5011326;28;20017;-76
2023/03/26 04:49:00;;;;;;;0.00;0.00;;;9.00;99.90;;;;;;5006077;28;20026;-75
2023/03/26 04:51:55;;;;;;;0.00;0.00;;;9.00;99.90;;;;;;5004491;28;20042;-76
2023/03/26 04:54:23;;;;;;;0.00;0.00;;;9.00;99.90;;;;;;5000852;28;20530;-75
2023/03/26 04:57:00;;;;;;;0.00;0.00;;;9.00;99.90;;;;;;5003006;28;20608;-75
2023/03/26 04:59:34;;;;;;;0.00;0.00;;;9.00;99.90;;;;;;5007172;28;20672;-75
2023/03/26 05:02:02;;;;;;;0.00;0.00;;;9.00;99.90;;;;;;5009388;28;20673;-75
2023/03/26 05:04:29;;;;;;;0.00;0.00;;;9.20;99.90;;;;;;5008278;28;20029;-76
2023/03/26 05:06:57;;;;;;;;;;;9.20;99.90;;;;;;5003398;28;20057;-78
2023/03/26 05:09:25;;;;;;;0.00;0.00;;;9.40;99.90;;;;;;5022119;28;19916;-76
2023/03/26 05:11:52;;;;;;;0.00;0.00;;;9.60;99.90;;;;;;5020010;28;20028;-77
2023/03/26 05:14:20;;;;;;;;;;;10.10;99.90;;;;;;5014062;28;20378;-77
2023/03/26 05:16:49;;;;;;;0.00;0.00;;;11.10;99.90;;;;;;5008619;28;19905;-76
2023/03/26 05:19:16;;;;;;;0.00;0.00;;;11.70;99.90;;;;;;5023175;28;20090;-75
2023/03/26 05:21:45;;;;;;;0.00;0.00;;;12.00;99.90;;;;;;5008053;28;20041;-76
2023/03/26 05:24:12;;;;;;;0.00;0.00;;;12.60;99.90;;;;;;5007422;28;20096;-75
2023/03/26 05:26:40;;;;;;;;;;;12.70;99.90;;;;;;5010803;28;20030;-75
2023/03/26 05:29:06;;;;;;;0.00;0.00;;;12.30;99.90;;;;;;5023104;28;19917;-75
2023/03/26 05:31:31;;;;;;;0.00;0.00;;;12.00;99.90;;;;;;5000295;28;20486;-75
2023/03/26 05:33:59;;;;;;;0.00;0.00;;;12.30;99.90;;;;;;5007930;28;20505;-75
2023/03/26 05:36:28;;;;;;;0.00;0.00;;;11.90;99.90;;;;;;5008047;28;20523;-75
2023/03/26 05:38:56;;;;;;;0.00;0.00;;;11.50;99.90;;;;;;5003062;28;20030;-75
2023/03/26 05:41:22;;;;;;;0.00;0.00;;;11.20;99.90;;;;;;4998299;28;20045;-75
2023/03/26 05:43:50;;;;;;;;;;;10.90;99.90;;;;;;5002414;28;20050;-75
2023/03/26 05:46:16;;;;;;;0.00;0.00;;;10.60;99.90;;;;;;5006582;28;19909;-75
2023/03/26 05:48:42;;;;;;;0.00;0.00;;;10.50;99.90;;;;;;5005563;28;20026;-75
2023/03/26 05:51:08;;;;;;;0.00;0.00;;;10.40;99.90;;;;;;5006297;28;20080;-75
2023/03/26 05:53:36;;;;;;;0.00;0.00;;;10.30;99.90;;;;;;4999996;28;20269;-75
2023/03/26 05:56:03;;;;;;;0.00;0.00;;;10.20;99.90;;;;;;5006871;28;20026;-75
2023/03/26 05:58:31;;;;;;;0.00;0.00;;;10.10;99.90;;;;;;5006465;28;20040;-75
2023/03/26 06:01:07;;;;;;;0.00;0.00;;;10.10;99.90;;;;;;5002213;28;20041;-75
2023/03/26 06:03:41;;;;;;;0.00;0.00;;;10.10;99.90;;;;;;5017343;28;20075;-75
2023/03/26 06:06:15;;;;;;;0.00;0.00;;;10.10;99.90;;;;;;4997609;28;20652;-75
2023/03/26 06:08:51;;;;;;;0.00;0.00;;;10.10;99.90;;;;;;5011176;28;20472;-75
2023/03/26 06:11:19;;;;;;;0.00;0.00;;;10.20;99.90;;;;;;5002306;28;20080;-75
2023/03/26 06:13:47;;;;;;;0.00;0.00;;;10.20;99.90;;;;;;5001261;28;20026;-75
2023/03/26 06:16:21;;;;;;;0.00;0.00;;;10.40;99.90;;;;;;5019219;28;20017;-75
2023/03/26 06:18:55;;;;;;;0.00;0.00;;;10.40;99.90;;;;;;4993953;28;20116;-75
2023/03/26 06:21:21;;;;;;;0.00;0.00;;;10.40;99.90;;;;;;5002967;28;20021;-75
2023/03/26 06:23:47;;;;;;;0.00;0.00;;;10.40;99.90;;;;;;5003272;28;20022;-75
2023/03/26 06:26:17;;;;;;;0.00;0.00;;;10.50;99.90;;;;;;5014575;28;20050;-75
2023/03/26 06:28:48;;;;;;;0.00;0.00;;;10.50;99.90;;;;;;5004143;28;20069;-75
2023/03/26 06:31:16;;;;;;;0.00;0.00;;;10.60;99.90;;;;;;5003553;28;20044;-75
2023/03/26 06:33:42;;;;;;;0.00;0.00;;;11.30;99.90;;;;;;5001825;28;20026;-76
2023/03/26 06:36:09;;;;;;;0.00;0.00;;;12.50;99.90;;;;;;5015649;28;20602;-75
2023/03/26 06:38:35;;;;;;;0.00;0.00;;;12.70;99.90;;;;;;5007059;28;20116;-75
2023/03/26 06:41:18;;;;;;;0.00;0.00;;;12.80;99.90;;;;;;5023552;28;20116;-75
2023/03/26 06:43:45;;;;;;;0.10;0.10;;;12.40;99.90;;;;;;5001555;28;20637;-75
2023/03/26 06:46:11;;;;;;;0.00;0.00;;;12.80;99.90;;;;;;4997456;28;20505;-74
2023/03/26 06:48:36;;;;;;;0.00;0.00;;;13.40;99.90;;;;;;5014136;28;20112;-76
2023/03/26 06:51:04;;;;;;;0.00;0.00;;;13.40;99.90;;;;;;5021571;28;20033;-75
2023/03/26 06:53:33;;;;;;;0.00;0.00;;;13.40;99.90;;;;;;4994418;28;20487;-76
2023/03/26 06:56:02;;;;;;;0.00;0.00;;;13.30;99.90;;;;;;5002206;28;20032;-75
2023/03/26 06:58:29;;;;;;;0.00;0.00;;;13.60;99.80;;;;;;4999204;28;20034;-76
2023/03/26 07:00:58;;;;;;;0.00;0.00;;;13.70;99.50;;;;;;5022744;28;20034;-76
2023/03/26 07:03:26;;;;;;;0.00;0.00;;;13.50;99.20;;;;;;5006150;28;20394;-75
2023/03/26 07:05:53;;;;;;;0.00;0.00;;;14.40;98.30;;;;;;5004927;28;20087;-76
2023/03/26 07:08:22;;;;;;;0.00;0.00;;;17.20;94.40;;;;;;5017025;28;20018;-76
2023/03/26 07:10:51;;;;;;;0.00;0.00;;;20.90;81.20;;;;;;5017146;28;20026;-76
2023/03/26 07:13:23;;;;;;;0.00;0.00;;;22.00;67.90;;;;;;5005879;28;20836;-77
2023/03/26 07:15:50;;;;;;;0.00;0.00;;;22.50;65.40;;;;;;5012145;28;20114;-75
2023/03/26 07:18:18;;;;;;;0.00;0.00;;;25.00;60.60;;;;;;4991615;28;20085;-74
2023/03/26 07:20:45;;;;;;;0.00;0.00;;;26.70;55.30;;;;;;5012639;28;20018;-75
2023/03/26 07:23:12;;;;;;;0.00;0.00;;;27.20;52.30;;;;;;5003344;28;20021;-75
2023/03/26 07:25:40;;;;;;;0.00;0.00;;;27.70;51.10;;;;;;4996766;28;20021;-75
2023/03/26 07:28:25;;;;;;;0.00;0.00;;;29.10;48.60;;;;;;4998914;28;20022;-75
2023/03/26 07:31:28;;;;;;;0.00;0.00;;;27.70;47.80;;;;;;5019160;28;20033;-75
2023/03/26 07:34:10;;;;;;;0.00;0.00;;;30.00;46.60;;;;;;5000546;28;20026;-75
2023/03/26 07:37:00;;;;;;;0.00;0.00;;;31.10;45.70;;;;;;5005326;28;20634;-75
2023/03/26 07:39:46;;;;;;;0.00;0.00;;;32.70;43.50;;;;;;5003973;28;20518;-75
2023/03/26 07:42:50;;;;;;;0.00;0.00;;;32.60;42.30;;;;;;5006067;28;20068;-76
2023/03/26 07:45:44;;;;;;;0.00;0.00;;;32.70;41.00;;;;;;5000429;28;20022;-74
2023/03/26 07:48:26;;;;;;;0.00;0.00;;;34.30;39.50;;;;;;5002706;28;20061;-75
2023/03/26 07:50:53;;;;;;;0.00;0.00;;;33.00;39.80;;;;;;4998211;28;20026;-74
2023/03/26 07:53:19;;;;;;;0.00;0.00;;;31.70;39.40;;;;;;5001721;28;20030;-74
2023/03/26 07:55:57;;;;;;;0.00;0.00;;;32.20;40.20;;;;;;4997824;28;20021;-74
2023/03/26 07:58:51;;;;;;;0.00;0.00;;;29.60;40.40;;;;;;4997008;28;20056;-74
2023/03/26 08:01:33;;;;;;;0.00;0.00;;;28.40;41.50;;;;;;5007110;28;20057;-75
2023/03/26 08:03:59;;;;;;;0.00;0.00;;;27.30;42.40;;;;;;5007435;28;20026;-74
2023/03/26 08:06:36;;;;;;;0.00;0.00;;;29.70;42.10;;;;;;5007297;28;20029;-74
2023/03/26 08:09:29;;;;;;;0.00;0.00;;;30.50;42.00;;;;;;5006297;28;20032;-75
2023/03/26 08:12:18;;;;;;;0.00;0.00;;;30.80;40.70;;;;;;5003280;28;20075;-74
2023/03/26 08:15:04;;;;;;;0.00;0.00;;;28.70;41.50;;;;;;5009302;28;20106;-73
2023/03/26 08:17:41;;;;;;;0.00;0.00;;;29.20;42.70;;;;;;5010253;28;20010;-75
2023/03/26 08:20:37;;;;;;;0.00;0.00;;;29.80;41.90;;;;;;5004915;28;20022;-74
2023/03/26 08:23:45;;;;;;;0.00;0.00;;;29.00;41.90;;;;;;5015700;28;20489;-73
2023/03/26 08:26:31;;;;;;;0.00;0.00;;;27.60;42.20;;;;;;5004084;28;20025;-74
2023/03/26 08:29:15;;;;;;;0.00;0.00;;;28.00;42.60;;;;;;5002019;28;20037;-74
2023/03/26 08:31:45;;;;;;;0.03;0.03;;;28.60;42.90;;;;;;5007133;28;20366;-73
2023/03/26 08:34:12;;;;;;;0.00;0.00;;;30.40;42.00;;;;;;4999864;28;20072;-74
2023/03/26 08:36:41;;;;;;;0.00;0.00;;;31.60;40.70;;;;;;5019248;28;20025;-74
2023/03/26 08:39:07;;;;;;;0.00;0.00;;;31.50;40.20;;;;;;5002123;28;20105;-74
2023/03/26 08:41:53;;;;;;;0.00;0.00;;;31.20;40.80;;;;;;5002076;28;20056;-74
2023/03/26 08:44:55;;;;;;;0.00;0.00;;;32.50;40.10;;;;;;4995479;28;20050;-74
2023/03/26 08:47:54;;;;;;;0.00;0.00;;;32.50;39.30;;;;;;4996691;28;20045;-75
2023/03/26 08:50:47;;;;;;;0.00;0.00;;;32.70;39.40;;;;;;5002667;28;20018;-74
2023/03/26 08:53:59;;;;;;;0.00;0.00;;;32.50;39.10;;;;;;5002913;28;20017;-75
2023/03/26 08:56:46;;;;;;;0.00;0.00;;;29.30;39.80;;;;;;4993466;28;20037;-75
2023/03/26 08:59:30;;;;;;;0.00;0.00;;;28.70;41.20;;;;;;5003495;28;20110;-74
2023/03/26 09:02:29;;;;;;;0.00;0.00;;;29.20;41.50;;;;;;5002921;28;20088;-74
2023/03/26 09:05:27;;;;;;;0.00;0.00;;;29.80;40.80;;;;;;5002559;28;20058;-74
2023/03/26 09:07:59;;;;;;;0.00;0.00;;;31.20;40.20;;;;;;4999568;28;20025;-74
2023/03/26 09:10:43;;;;;;;0.00;0.00;;;31.20;39.70;;;;;;4999186;28;20754;-73
2023/03/26 09:13:40;;;;;;;0.00;0.00;;;32.50;39.80;;;;;;4999253;28;20017;-73
2023/03/26 09:16:28;;;;;;;0.00;0.00;;;32.80;39.10;;;;;;4998095;28;20018;-72
2023/03/26 09:19:12;;;;;;;0.00;0.00;;;30.50;41.00;;;;;;5006109;28;21160;-74
2023/03/26 09:22:15;;;;;;;0.00;0.00;;;28.60;39.70;;;;;;5008957;28;20034;-78
2023/03/26 09:25:06;;;;;;;0.00;0.00;;;28.60;42.20;;;;;;4999306;28;20025;-78
2023/03/26 09:27:39;;;;;;;0.00;0.00;;;29.30;40.80;;;;;;4998656;28;20025;-78
2023/03/26 09:30:23;;;;;;;0.00;0.00;;;29.40;41.20;;;;;;5001233;28;20033;-78
2023/03/26 09:33:02;;;;;;;0.00;0.00;;;30.80;40.80;;;;;;4991367;28;20680;-78
2023/03/26 09:36:13;;;;;;;0.00;0.00;;;31.30;40.20;;;;;;5016602;28;20022;-77
2023/03/26 09:38:52;;;;;;;0.00;0.00;;;31.60;39.80;;;;;;5020362;28;20466;-77
2023/03/26 09:41:23;;;;;;;0.00;0.00;;;29.50;39.50;;;;;;5002935;28;20545;-75
2023/03/26 09:44:00;;;;;;;0.00;0.00;;;29.20;39.90;;;;;;5004509;28;20055;-75
2023/03/26 09:47:01;;;;;;;0.00;0.00;;;28.70;39.70;;;;;;4997292;28;20022;-76
2023/03/26 09:49:37;;;;;;;0.00;0.00;;;27.00;39.80;;;;;;5004138;28;20041;-76
2023/03/26 09:52:11;;;;;;;0.00;0.00;;;25.80;41.10;;;;;;5001852;28;20018;-76
2023/03/26 09:55:01;;;;;;;0.00;0.00;;;27.20;41.60;;;;;;4998497;28;20077;-74
2023/03/26 09:57:50;;;;;;;0.00;0.00;;;28.30;41.50;;;;;;5015970;28;20077;-74
2023/03/26 10:00:43;;;;;;;0.00;0.00;;;29.90;40.40;;;;;;5000136;28;20060;-76
2023/03/26 10:03:12;;;;;;;0.00;0.00;;;27.70;40.80;;;;;;4999674;28;20470;-76
2023/03/26 10:05:57;;;;;;;0.10;0.10;;;27.40;41.50;;;;;;5002531;28;20026;-76
2023/03/26 10:08:40;;;;;;;0.00;0.00;;;27.00;41.40;;;;;;5020289;28;21525;-76
2023/03/26 10:11:33;;;;;;;0.00;0.00;;;27.10;41.80;;;;;;5003961;28;20046;-76
2023/03/26 10:14:14;;;;;;;0.05;0.05;;;26.90;42.00;;;;;;5000554;28;20038;-76
2023/03/26 10:17:09;;;;;;;0.00;0.00;;;26.20;42.30;;;;;;5015564;28;20026;-76
2023/03/26 10:19:45;;;;;;;0.00;0.00;;;25.70;42.20;;;;;;5009596;28;20087;-76
2023/03/26 10:22:50;;;;;;;0.00;0.00;;;25.00;43.00;;;;;;5000289;28;20018;-80
2023/03/26 10:25:54;;;;;;;0.00;0.00;;;23.10;43.30;;;;;;4997316;28;20021;-79
2023/03/26 10:28:38;;;;;;;0.00;0.00;;;22.60;45.50;;;;;;5001874;28;20084;-78
2023/03/26 10:31:34;;;;;;;0.00;0.00;;;22.70;45.70;;;;;;4999874;28;20040;-81
2023/03/26 10:34:13;;;;;;;0.00;0.00;;;22.40;45.30;;;;;;5015898;28;20046;-79
2023/03/26 10:37:15;;;;;;;0.00;0.00;;;22.60;46.00;;;;;;5021353;28;20096;-77
2023/03/26 10:39:54;;;;;;;0.00;0.00;;;23.10;45.80;;;;;;5020371;28;20116;-80
2023/03/26 10:42:57;;;;;;;0.00;0.00;;;22.70;44.80;;;;;;5015242;28;20019;-81
2023/03/26 10:45:38;;;;;;;0.00;0.00;;;22.70;44.40;;;;;;4995569;28;20029;-80
2023/03/26 10:48:13;;;;;;;0.00;0.00;;;23.00;44.80;;;;;;4999969;28;20018;-80
2023/03/26 10:50:53;;;;;;;0.00;0.00;;;23.40;44.90;;;;;;4995826;28;20022;-78
2023/03/26 10:53:35;;;;;;;0.00;0.00;;;23.40;43.60;;;;;;5000019;28;20093;-79
2023/03/26 10:56:39;;;;;;;0.00;0.00;;;23.80;43.90;;;;;;4999071;28;20026;-78
2023/03/26 10:59:13;;;;;;;0.00;0.00;;;23.20;44.20;;;;;;5000832;28;20110;-78
2023/03/26 11:01:57;;;;;;;0.00;0.00;;;22.50;44.90;;;;;;5000753;28;20030;-81
2023/03/26 11:05:12;;;;;;;0.00;0.00;;;21.70;45.30;;;;;;4996091;28;20018;-80
2023/03/26 11:08:00;;;;;;;0.00;0.00;;;21.10;45.80;;;;;;5008833;28;20068;-79
2023/03/26 11:10:52;;;;;;;0.00;0.00;;;21.50;46.20;;;;;;5005454;28;20023;-81
2023/03/26 11:14:15;;;;;;;0.00;0.00;;;21.10;47.30;;;;;;4994662;28;20030;-80
2023/03/26 11:17:06;;;;;;;0.00;0.00;;;21.50;46.80;;;;;;4997275;28;20018;-82
2023/03/26 11:19:55;;;;;;;0.00;0.00;;;21.10;46.40;;;;;;5015344;28;20197;-83
2023/03/26 11:22:52;;;;;;;0.00;0.00;;;21.00;47.30;;;;;;5009584;28;20749;-88
2023/03/26 11:25:55;;;;;;;0.00;0.00;;;20.80;47.50;;;;;;5007515;28;20031;-81
2023/03/26 11:28:27;;;;;;;0.00;0.00;;;20.40;47.30;;;;;;4999647;28;20873;-73
2023/03/26 11:31:00;;;;;;;0.00;0.00;;;19.60;48.20;;;;;;4997435;28;20410;-72
2023/03/26 11:33:43;;;;;;;0.00;0.00;;;19.90;48.20;;;;;;5012599;28;20101;-79
2023/03/26 11:36:13;;;;;;;0.00;0.00;;;19.90;48.00;;;;;;5006463;28;20184;-79
2023/03/26 11:38:49;;;;;;;0.00;0.00;;;19.90;47.50;;;;;;5015940;28;20471;-79
2023/03/26 11:41:21;;;;;;;0.00;0.00;;;19.70;47.80;;;;;;5014688;28;20029;-78
2023/03/26 11:44:20;;;;;;;0.00;0.00;;;19.90;47.80;;;;;;5028079;28;20021;-79
2023/03/26 11:47:00;;;;;;;0.00;0.00;;;20.00;46.70;;;;;;5004755;28;20381;-82
2023/03/26 11:49:36;;;;;;;0.00;0.00;;;20.50;45.80;;;;;;5005774;28;20081;-82
2023/03/26 11:52:03;;;;;;;0.00;0.00;;;20.10;46.50;;;;;;5019750;28;20030;-81
2023/03/26 11:54:32;;;;;;;0.00;0.00;;;20.20;47.20;;;;;;5001233;28;20025;-80
2023/03/26 11:57:25;;;;;;;0.00;0.00;;;20.10;47.10;;;;;;5006227;28;20904;-78
2023/03/26 12:00:19;;;;;;;0.00;0.00;;;20.10;46.40;;;;;;5003711;28;20571;-78
2023/03/26 12:02:47;;;;;;;0.00;0.00;;;19.90;46.50;;;;;;5001857;28;20030;-78
2023/03/26 12:05:23;;;;;;;0.00;0.00;;;19.30;47.10;;;;;;5018251;28;20103;-79
2023/03/26 12:07:55;;;;;;;0.00;0.00;;;19.10;47.00;;;;;;4998942;28;20014;-78
2023/03/26 12:10:27;;;;;;;0.00;0.00;;;19.10;47.10;;;;;;5014525;28;20049;-77
2023/03/26 12:12:59;;;;;;;0.00;0.00;;;19.10;47.70;;;;;;5005113;28;20038;-78
2023/03/26 12:15:31;;;;;;;0.00;0.00;;;19.00;47.80;;;;;;5016113;28;20073;-77
2023/03/26 12:18:25;;;;;;;0.00;0.00;;;18.80;48.40;;;;;;5022286;28;20069;-76
2023/03/26 12:21:15;;;;;;;0.00;0.00;;;19.10;48.50;;;;;;5006719;28;20024;-78
2023/03/26 12:24:00;;;;;;;0.00;0.00;;;19.10;48.00;;;;;;5005160;28;20044;-79
2023/03/26 12:26:40;;;;;;;0.00;0.00;;;19.00;48.00;;;;;;5024471;28;20038;-78
2023/03/26 12:29:17;;;;;;;0.00;0.00;;;18.40;48.60;;;;;;5000681;28;20029;-78
2023/03/26 12:32:12;;;;;;;0.00;0.00;;;18.60;49.30;;;;;;5007174;28;20033;-76
2023/03/26 12:34:38;;;;;;;0.00;0.00;;;18.40;47.90;;;;;;5000388;28;20095;-76
2023/03/26 12:37:27;;;;;;;0.00;0.00;;;18.40;47.90;;;;;;5005146;28;20512;-78
2023/03/26 12:40:23;;;;;;;0.00;0.00;;;18.30;47.20;;;;;;5007729;28;20030;-76
2023/03/26 12:42:57;;;;;;;0.00;0.00;;;18.00;47.60;;;;;;4999201;28;20021;-78
2023/03/26 12:45:46;;;;;;;0.00;0.00;;;18.20;47.60;;;;;;5007884;28;20474;-78
2023/03/26 12:48:16;;;;;;;0.00;0.00;;;18.00;47.40;;;;;;5008387;28;20080;-78
2023/03/26 12:50:51;;;;;;;0.00;0.00;;;17.80;48.10;;;;;;5015585;28;20525;-77
2023/03/26 12:53:44;;;;;;;0.00;0.00;;;18.10;48.10;;;;;;5022680;28;20032;-77
2023/03/26 12:56:34;;;;;;;0.00;0.00;;;18.30;47.50;;;;;;5001231;28;20112;-76
2023/03/26 12:59:14;;;;;;;0.00;0.00;;;18.50;47.70;;;;;;5001759;28;20561;-81
2023/03/26 13:01:54;;;;;;;0.00;0.00;;;18.90;47.70;;;;;;5008132;28;20033;-77
2023/03/26 13:04:41;;;;;;;0.00;0.00;;;19.00;47.90;;;;;;5001967;28;20476;-78
2023/03/26 13:07:23;;;;;;;;;;;19.20;46.50;;;;;;5005271;28;20022;-78
2023/03/26 13:09:54;;;;;;;0.00;0.00;;;19.30;47.10;;;;;;5003737;28;19905;-78
2023/03/26 13:12:56;;;;;;;0.00;0.00;;;19.10;46.60;;;;;;4998449;28;20034;-78
2023/03/26 13:16:07;;;;;;;0.00;0.00;;;18.80;46.40;;;;;;4994880;28;20048;-78
2023/03/26 13:18:58;;;;;;;0.00;0.00;;;18.40;45.80;;;;;;5001559;28;20056;-79
2023/03/26 13:21:36;;;;;;;0.00;0.00;;;18.40;46.30;;;;;;5004317;28;20030;-79
2023/03/26 13:24:31;;;;;;;0.00;0.00;;;18.40;46.40;;;;;;4996017;28;20036;-80
2023/03/26 13:27:13;;;;;;;0.00;0.00;;;18.10;46.80;;;;;;5021986;28;20026;-76
2023/03/26 13:29:42;;;;;;;0.00;0.00;;;18.50;46.40;;;;;;4996809;28;20122;-77
2023/03/26 13:32:21;;;;;;;0.00;0.00;;;18.50;46.40;;;;;;4997711;28;20077;-76
2023/03/26 13:35:05;;;;;;;0.00;0.00;;;18.50;45.80;;;;;;5018134;28;20080;-77
2023/03/26 13:37:35;;;;;;;0.00;0.00;;;18.70;45.70;;;;;;5000215;28;20083;-78
2023/03/26 13:40:27;;;;;;;0.00;0.00;;;18.50;45.20;;;;;;5005100;28;20056;-78
2023/03/26 13:43:21;;;;;;;0.00;0.00;;;18.60;45.10;;;;;;4999201;28;20029;-79
2023/03/26 13:45:55;;;;;;;0.00;0.00;;;18.50;45.60;;;;;;5002004;28;20418;-79